»·PEaware :: N2494V KNYL-KSAN

N2494V :: KNYL-KSAN

FLIGHT INFORMATION

Flight Status: Arrived
Operator: Privately registered:
United States
More flights under this callsign
Pilot: Sally S. (18014)
Aircraft: Unknown
(DA62)
More flights by this aircraft type
Origin: KNYL Yuma MCAS/Yuma Intl
United States
Destination: KSAN San Diego Intl-Lindbergh
United States
More flights between these airports :: More routes between these airports
Route: +ARAZI V66 MZB
File this flight plan on PilotEdge
Remarks:
Altitude:
(Current/Filed)
8,000ft
Speed:
(Current/Filed)
163kts
Departed: 15-Apr-18 09:43 AM
Arrived: 15-Apr-18 10:39 AM
Distance/Time
Traveled:
130nm/0:56
Distance/Time
To Go:
Arrived

Flight Plot

Page will automatically refresh every two minutes.

Flight plan parsing failed; only flown route is shown


Map Options




Map Legend


Flown Route
Filed Route
Departure Airport
Arrival Airport
Navaid (VOR, NDB)
Fix

Horizontal Profiles

Position Reports

Time Latitude Longitude Heading Altitude Ground
Speed
15-Apr-18 08:51 32.660822 -114.609679 87 216ft 0kts
15-Apr-18 08:52 32.660822 -114.609679 87 216ft 0kts
15-Apr-18 08:53 32.660822 -114.609679 87 216ft 0kts
15-Apr-18 08:54 32.660822 -114.609679 87 216ft 0kts
15-Apr-18 08:55 32.660822 -114.609679 87 216ft 0kts
15-Apr-18 08:56 32.660822 -114.609679 87 216ft 0kts
15-Apr-18 08:57 32.660822 -114.609679 87 216ft 0kts
15-Apr-18 08:58 32.660822 -114.609679 87 216ft 0kts
15-Apr-18 08:59 32.660822 -114.609679 87 216ft 0kts
15-Apr-18 09:00 32.660822 -114.609679 87 216ft 0kts
15-Apr-18 09:01 32.660822 -114.609679 87 216ft 0kts
15-Apr-18 09:02 32.660822 -114.609679 87 216ft 0kts
15-Apr-18 09:03 32.660822 -114.609679 87 216ft 0kts
15-Apr-18 09:04 32.660822 -114.609679 87 216ft 0kts
15-Apr-18 09:05 32.660822 -114.609679 87 216ft 0kts
15-Apr-18 09:06 32.660822 -114.609679 87 216ft 0kts
15-Apr-18 09:07 32.660822 -114.609679 87 216ft 0kts
15-Apr-18 09:08 32.660822 -114.609679 87 216ft 0kts
15-Apr-18 09:09 32.660822 -114.609679 87 216ft 0kts
15-Apr-18 09:10 32.660822 -114.609679 87 216ft 0kts
15-Apr-18 09:11 32.660822 -114.609679 87 216ft 0kts
15-Apr-18 09:12 32.660822 -114.609679 87 216ft 0kts
15-Apr-18 09:13 32.660822 -114.609679 87 216ft 0kts
15-Apr-18 09:14 32.660822 -114.609679 87 216ft 0kts
15-Apr-18 09:15 32.660822 -114.609679 87 216ft 0kts
15-Apr-18 09:16 32.660822 -114.609679 87 216ft 0kts
15-Apr-18 09:17 32.660822 -114.609679 87 216ft 0kts
15-Apr-18 09:18 32.660822 -114.609679 87 216ft 0kts
15-Apr-18 09:19 32.660822 -114.609679 87 216ft 0kts
15-Apr-18 09:20 32.660822 -114.609679 87 216ft 0kts
15-Apr-18 09:21 32.660822 -114.609679 87 216ft 0kts
15-Apr-18 09:22 32.660822 -114.609679 87 216ft 0kts
15-Apr-18 09:23 32.660822 -114.609679 87 216ft 0kts
15-Apr-18 09:24 32.660822 -114.609679 87 216ft 0kts
15-Apr-18 09:25 32.660822 -114.609679 87 216ft 0kts
15-Apr-18 09:26 32.660822 -114.609679 87 216ft 0kts
15-Apr-18 09:27 32.660822 -114.609679 87 216ft 0kts
15-Apr-18 09:28 32.660822 -114.609679 87 216ft 0kts
15-Apr-18 09:29 32.660822 -114.609679 87 216ft 0kts
15-Apr-18 09:30 32.660822 -114.609679 87 216ft 0kts
15-Apr-18 09:31 32.660822 -114.609679 87 216ft 0kts
15-Apr-18 09:32 32.660822 -114.609679 87 216ft 0kts
15-Apr-18 09:33 32.660822 -114.609679 87 216ft 0kts
15-Apr-18 09:34 32.660822 -114.609679 87 216ft 0kts
15-Apr-18 09:35 32.660822 -114.609679 87 216ft 0kts
15-Apr-18 09:36 32.661378 -114.609380 2 216ft 7kts
15-Apr-18 09:37 32.661831 -114.605883 83 216ft 13kts
15-Apr-18 09:38 32.665775 -114.605560 355 216ft 13kts
15-Apr-18 09:39 32.667211 -114.605239 88 216ft 0kts
15-Apr-18 09:40 32.667211 -114.605239 88 216ft 0kts
15-Apr-18 09:41 32.667212 -114.605194 88 216ft 0kts
15-Apr-18 09:42 32.662328 -114.603882 177 217ft 88kts
15-Apr-18 09:43 32.636468 -114.603200 178 1585ft 93kts
15-Apr-18 09:44 32.610474 -114.602547 178 2993ft 96kts
15-Apr-18 09:45 32.597060 -114.619505 310 4378ft 96kts
15-Apr-18 09:46 32.626175 -114.635716 337 5012ft 150kts
15-Apr-18 09:47 32.668170 -114.655617 337 5000ft 165kts
15-Apr-18 09:48 32.707088 -114.673979 337 5763ft 135kts
15-Apr-18 09:49 32.742013 -114.690403 337 6523ft 136kts
15-Apr-18 09:50 32.764460 -114.720138 272 7261ft 138kts
15-Apr-18 09:51 32.764676 -114.765527 270 7989ft 139kts
15-Apr-18 09:52 32.764031 -114.811650 269 8711ft 140kts
15-Apr-18 09:53 32.763183 -114.857791 269 9416ft 141kts
15-Apr-18 09:54 32.762261 -114.904596 269 9995ft 149kts
15-Apr-18 09:55 32.761196 -114.957297 269 10001ft 169kts
15-Apr-18 09:56 32.760026 -115.013832 269 9999ft 172kts
15-Apr-18 09:57 32.758826 -115.070526 269 9999ft 171kts
15-Apr-18 09:58 32.757602 -115.126993 269 9999ft 170kts
15-Apr-18 09:59 32.756364 -115.183045 269 9999ft 168kts
15-Apr-18 10:00 32.755130 -115.238251 269 10007ft 167kts
15-Apr-18 10:01 32.753880 -115.292913 269 10005ft 167kts
15-Apr-18 10:02 32.752652 -115.345527 269 10004ft 166kts
15-Apr-18 10:03 32.751348 -115.400357 269 10002ft 166kts
15-Apr-18 10:04 32.750031 -115.454724 268 10001ft 165kts
15-Apr-18 10:05 32.748766 -115.508930 270 10004ft 165kts
15-Apr-18 10:06 32.750128 -115.563459 271 10008ft 164kts
15-Apr-18 10:07 32.751519 -115.617733 271 10011ft 164kts
15-Apr-18 10:08 32.752858 -115.671900 272 10017ft 166kts
15-Apr-18 10:09 32.754217 -115.725983 272 10018ft 167kts
15-Apr-18 10:10 32.755548 -115.780671 272 10018ft 167kts
15-Apr-18 10:11 32.756864 -115.835724 272 10018ft 167kts
15-Apr-18 10:12 32.758156 -115.890848 272 10018ft 167kts
15-Apr-18 10:13 32.759401 -115.944988 272 10017ft 167kts
15-Apr-18 10:14 32.760632 -115.999570 272 10017ft 167kts
15-Apr-18 10:15 32.761849 -116.054479 272 10017ft 167kts
15-Apr-18 10:16 32.763033 -116.109119 272 10017ft 167kts
15-Apr-18 10:17 32.764198 -116.163837 272 10017ft 167kts
15-Apr-18 10:18 32.765342 -116.218880 272 10027ft 167kts
15-Apr-18 10:19 32.766450 -116.273083 272 10038ft 167kts
15-Apr-18 10:20 32.767543 -116.327848 272 10048ft 167kts
15-Apr-18 10:21 32.768605 -116.382248 273 10059ft 167kts
15-Apr-18 10:22 32.769651 -116.436935 273 10063ft 167kts
15-Apr-18 10:23 32.770675 -116.491802 273 10061ft 167kts
15-Apr-18 10:24 32.771672 -116.546557 272 10059ft 167kts
15-Apr-18 10:25 32.772654 -116.601774 273 10057ft 167kts
15-Apr-18 10:26 32.760183 -116.653706 250 9461ft 168kts
15-Apr-18 10:27 32.743271 -116.704085 251 8494ft 170kts
15-Apr-18 10:28 32.725904 -116.756104 250 7238ft 175kts
15-Apr-18 10:29 32.708512 -116.809821 251 6080ft 170kts
15-Apr-18 10:30 32.693464 -116.862897 251 5140ft 172kts
15-Apr-18 10:31 32.680785 -116.915245 251 4187ft 169kts
15-Apr-18 10:32 32.678865 -116.964363 286 3770ft 128kts
15-Apr-18 10:33 32.688936 -117.006595 287 3361ft 142kts
15-Apr-18 10:34 32.700270 -117.052887 287 2683ft 141kts
15-Apr-18 10:35 32.710303 -117.093965 287 1949ft 115kts
15-Apr-18 10:36 32.719275 -117.130654 287 1138ft 115kts
15-Apr-18 10:37 32.728577 -117.169114 286 239ft 133kts
15-Apr-18 10:38 32.733916 -117.187973 28 21ft 0kts
15-Apr-18 10:39 32.734343 -117.186836 29 21ft 8kts
15-Apr-18 10:40 32.734686 -117.186899 199 21ft 0kts
15-Apr-18 10:41 32.734686 -117.186899 199 21ft 0kts
15-Apr-18 10:42 32.734686 -117.186899 199 21ft 0kts
15-Apr-18 10:43 32.734686 -117.186899 199 21ft 0kts
15-Apr-18 10:44 32.734686 -117.186899 199 21ft 0kts
15-Apr-18 10:45 32.734686 -117.186899 199 21ft 0kts
15-Apr-18 10:46 32.734686 -117.186899 199 21ft 0kts
15-Apr-18 10:47 32.734686 -117.186899 199 21ft 0kts
15-Apr-18 10:48 32.734686 -117.186899 199 21ft 0kts
15-Apr-18 10:49 32.734686 -117.186899 199 21ft 0kts
15-Apr-18 10:50 32.734686 -117.186899 199 21ft 0kts
15-Apr-18 10:51 32.734686 -117.186899 199 21ft 0kts
15-Apr-18 10:52 32.734686 -117.186899 199 21ft 0kts

Navigation Log

Ident Type
Flight plan parsing failed, navigation log unavailable